KDUC/DUC METAR and TAF weather

Enter ICAO airport designator
Station Type Date Time Source
KDUC METAR 2020/09/18 19:55 UTC NOAA

KDUC 181955Z AUTO 04012KT 5SM HZ CLR 26/14 A3017 RMK AO2 T02630140


Station Type Date Time Source
KDUC Decoded METAR 2020/09/18 19:55 UTC NOAA

Duncan, Halliburton Field Airport, OK, United States (KDUC) 34-28-15N 097-57-36W
Sep 18, 2020 - 03:55 PM EDT / 2020.09.18 1955 UTC
Wind: from the NE (040 degrees) at 14 MPH (12 KT):0
Visibility: 5 mile(s):0
Sky conditions: clear
Weather: haze
Temperature: 79.3 F (26.3 C)
Dew Point: 57.2 F (14.0 C)
Relative Humidity: 46%
Pressure (altimeter): 30.17 in. Hg (1021 hPa)
ob: KDUC 181955Z AUTO 04012KT 5SM HZ CLR 26/14 A3017 RMK AO2 T02630140
cycle: 20

Station Type Date Time Source
KDUC TAF UTC NOAA

Error!

Example: see airport list